Time;durP1;ratioP1;P1;durP2;ratioP2;P2;SDS_P1;SDS_P2;PMS_P1;PMS_P2;Temp;Humidity;BMP_temperature;BMP_pressure;BME280_temperature;BME280_humidity;BME280_pressure;Samples;Min_cycle;Max_cycle;Signal;HPM_P1;HPM_P2
2023/08/02 00:02:05;;;;;;;5.80;4.20;;;;;;;17.83;88.22;99131.33;102589;278;105573;-54
2023/08/02 00:04:53;;;;;;;5.10;4.40;;;;;;;17.82;88.39;99129.35;102596;278;113173;-54
2023/08/02 00:07:39;;;;;;;5.00;3.80;;;;;;;17.84;88.38;99136.19;102685;278;96872;-57
2023/08/02 00:10:21;;;;;;;4.80;4.20;;;;;;;17.84;88.49;99132.36;102709;278;98296;-53
2023/08/02 00:12:59;;;;;;;6.30;4.10;;;;;;;17.85;88.53;99140.23;102711;278;120188;-53
2023/08/02 00:15:38;;;;;;;4.60;4.20;;;;;;;17.85;88.46;99143.08;102772;278;104658;-55
2023/08/02 00:18:18;;;;;;;7.30;4.20;;;;;;;17.84;88.54;99142.09;102636;278;114396;-55
2023/08/02 00:20:55;;;;;;;4.90;3.80;;;;;;;17.83;88.45;99137.17;102669;278;97394;-56
2023/08/02 00:23:41;;;;;;;4.70;3.80;;;;;;;17.79;88.59;99136.34;102672;278;96847;-56
2023/08/02 00:26:24;;;;;;;5.10;4.10;;;;;;;17.79;88.59;99135.13;102659;278;119728;-54
2023/08/02 00:29:03;;;;;;;5.60;4.40;;;;;;;17.73;88.89;99134.33;102629;278;105750;-54
2023/08/02 00:31:47;;;;;;;;;;;;;;;17.74;88.69;99137.89;102601;278;113160;-52
2023/08/02 00:34:28;;;;;;;5.20;3.80;;;;;;;17.73;88.78;99135.77;102613;278;96609;-53
2023/08/02 00:37:03;;;;;;;5.80;4.60;;;;;;;17.75;88.79;99138.02;102697;278;98388;-56
2023/08/02 00:39:49;;;;;;;6.20;4.20;;;;;;;17.75;88.97;99139.59;102599;278;119620;-55
2023/08/02 00:42:28;;;;;;;5.50;4.00;;;;;;;17.74;88.99;99147.67;102608;278;105007;-54
2023/08/02 00:45:05;;;;;;;5.60;4.10;;;;;;;17.71;88.89;99156.57;102622;278;114701;-53
2023/08/02 00:47:44;;;;;;;5.60;4.70;;;;;;;17.70;88.82;99155.21;102619;278;95574;-52
2023/08/02 00:50:22;;;;;;;6.00;4.20;;;;;;;17.66;88.95;99153.04;102703;278;96422;-56
2023/08/02 00:53:03;;;;;;;5.20;3.90;;;;;;;17.64;89.05;99150.20;102685;278;120136;-56
2023/08/02 00:55:43;;;;;;;7.70;4.60;;;;;;;17.62;89.09;99150.30;102740;278;105203;-54
2023/08/02 00:58:22;;;;;;;5.00;4.00;;;;;;;17.60;89.04;99147.16;102612;278;115119;-55
2023/08/02 01:01:07;;;;;;;4.60;3.70;;;;;;;17.55;89.17;99142.67;102691;278;94436;-56
2023/08/02 01:03:45;;;;;;;4.90;4.10;;;;;;;17.53;89.16;99148.91;102676;278;97580;-57
2023/08/02 01:06:28;;;;;;;5.60;4.30;;;;;;;17.48;89.27;99150.30;102667;278;119703;-56
2023/08/02 01:09:16;;;;;;;7.50;4.10;;;;;;;17.45;89.34;99154.98;102637;277;105592;-56
2023/08/02 01:12:04;;;;;;;5.30;4.50;;;;;;;17.44;89.51;99156.93;102631;278;114889;-57
2023/08/02 01:14:49;;;;;;;5.40;4.40;;;;;;;17.42;89.56;99158.73;102644;278;97185;-57
2023/08/02 01:17:31;;;;;;;6.20;4.00;;;;;;;17.42;89.47;99165.05;102531;278;98494;-55
2023/08/02 01:20:10;;;;;;;5.80;4.20;;;;;;;17.38;89.53;99165.91;102576;278;120317;-55
2023/08/02 01:22:47;;;;;;;5.40;4.50;;;;;;;17.35;89.48;99168.35;102628;278;104269;-53
2023/08/02 01:25:27;;;;;;;5.20;4.30;;;;;;;17.33;89.51;99177.61;102539;278;112314;-56
2023/08/02 01:28:12;;;;;;;5.10;4.40;;;;;;;17.32;89.79;99179.73;102574;278;95822;-56
2023/08/02 01:30:50;;;;;;;6.50;4.50;;;;;;;17.26;89.66;99177.95;102629;278;98233;-52
2023/08/02 01:33:35;;;;;;;8.00;3.90;;;;;;;17.23;89.78;99172.35;102597;278;119774;-52
2023/08/02 01:36:16;;;;;;;5.40;4.30;;;;;;;17.18;90.08;99162.55;102678;278;105431;-56
2023/08/02 01:39:02;;;;;;;6.80;4.50;;;;;;;17.18;90.06;99155.67;102602;278;114201;-56
2023/08/02 01:41:39;;;;;;;6.10;4.60;;;;;;;17.15;90.02;99157.71;102610;278;97187;-53
2023/08/02 01:44:20;;;;;;;6.10;4.30;;;;;;;17.15;89.95;99160.17;102618;266;97574;-52
2023/08/02 01:47:03;;;;;;;6.00;3.90;;;;;;;17.14;90.12;99160.08;102575;278;118703;-52
2023/08/02 01:49:42;;;;;;;5.40;4.20;;;;;;;17.13;90.09;99160.33;102493;279;107108;-52
2023/08/02 01:52:21;;;;;;;5.70;4.30;;;;;;;17.10;90.24;99170.30;102571;278;114913;-56
2023/08/02 01:55:05;;;;;;;5.90;4.60;;;;;;;17.09;90.32;99170.52;102597;278;97010;-55
2023/08/02 01:57:49;;;;;;;5.10;4.60;;;;;;;17.04;90.30;99174.28;102537;279;98276;-55
2023/08/02 02:00:36;;;;;;;5.40;4.00;;;;;;;17.00;90.51;99170.55;102517;278;119391;-54
2023/08/02 02:03:21;;;;;;;6.50;4.20;;;;;;;16.98;90.54;99170.91;102509;278;105376;-53
2023/08/02 02:06:06;;;;;;;5.80;4.20;;;;;;;16.96;90.48;99174.39;102514;278;114209;-52
2023/08/02 02:08:52;;;;;;;4.80;4.10;;;;;;;16.91;90.44;99176.48;102497;279;96694;-53
2023/08/02 02:11:35;;;;;;;5.60;4.00;;;;;;;16.85;90.41;99182.04;102556;278;96930;-56
2023/08/02 02:14:15;;;;;;;6.20;4.60;;;;;;;16.81;90.52;99186.42;102516;278;120214;-56
2023/08/02 02:16:58;;;;;;;6.00;4.80;;;;;;;16.80;90.59;99187.52;102545;279;104726;-56
2023/08/02 02:19:37;;;;;;;5.90;4.60;;;;;;;16.73;90.62;99184.93;102533;278;114369;-56
2023/08/02 02:22:25;;;;;;;6.50;4.70;;;;;;;16.67;90.75;99187.23;102579;278;95829;-53
2023/08/02 02:25:08;;;;;;;6.90;4.60;;;;;;;16.61;90.81;99190.59;102611;278;98566;-53
2023/08/02 02:27:49;;;;;;;6.50;4.40;;;;;;;16.60;90.79;99187.75;102607;278;118562;-53
2023/08/02 02:30:30;;;;;;;6.10;4.20;;;;;;;16.52;90.87;99179.75;102576;278;106377;-53
2023/08/02 02:33:12;;;;;;;6.60;4.70;;;;;;;16.41;90.94;99175.70;102558;278;113088;-52
2023/08/02 02:35:54;;;;;;;6.60;4.50;;;;;;;16.37;91.01;99178.33;102484;279;95457;-52
2023/08/02 02:38:34;;;;;;;7.40;4.20;;;;;;;16.35;91.22;99180.64;102527;278;97475;-53
2023/08/02 02:41:21;;;;;;;8.50;4.30;;;;;;;16.30;91.36;99181.96;102551;278;119677;-53
2023/08/02 02:44:01;;;;;;;8.20;4.80;;;;;;;16.26;91.30;99178.47;102491;278;105511;-53
2023/08/02 02:46:43;;;;;;;6.00;4.30;;;;;;;16.19;91.34;99178.40;102512;278;114044;-52
2023/08/02 02:49:24;;;;;;;5.30;4.40;;;;;;;16.15;91.56;99183.20;102516;278;96415;-53
2023/08/02 02:52:00;;;;;;;6.00;4.60;;;;;;;16.12;91.43;99182.61;102520;278;97526;-55
2023/08/02 02:54:43;;;;;;;6.40;4.70;;;;;;;16.03;91.49;99179.25;102540;278;119758;-54
2023/08/02 02:57:24;;;;;;;6.40;4.90;;;;;;;15.96;91.43;99182.86;102500;278;106096;-55
2023/08/02 03:00:03;;;;;;;5.60;4.40;;;;;;;15.91;91.52;99184.66;102522;278;114758;-51
2023/08/02 03:02:42;;;;;;;8.70;4.30;;;;;;;15.89;91.80;99187.95;102535;278;95795;-51
2023/08/02 03:05:27;;;;;;;7.70;4.70;;;;;;;15.88;91.85;99192.95;102530;278;96790;-53
2023/08/02 03:08:06;;;;;;;6.80;4.70;;;;;;;15.91;91.97;99195.02;102588;278;119640;-53
2023/08/02 03:10:52;;;;;;;6.80;4.80;;;;;;;15.89;92.10;99192.15;102599;279;104738;-55
2023/08/02 03:13:36;;;;;;;5.60;4.80;;;;;;;15.87;92.37;99197.14;102587;278;115003;-55
2023/08/02 03:16:18;;;;;;;5.50;4.50;;;;;;;15.89;92.38;99200.91;102591;278;96981;-55
2023/08/02 03:18:57;;;;;;;6.50;4.70;;;;;;;15.89;92.53;99199.02;102580;278;97451;-55
2023/08/02 03:21:36;;;;;;;7.90;4.50;;;;;;;15.90;92.50;99198.20;102576;278;119796;-52
2023/08/02 03:24:22;;;;;;;6.70;5.10;;;;;;;15.91;92.58;99195.38;102563;267;104976;-53
2023/08/02 03:27:03;;;;;;;9.10;5.00;;;;;;;15.90;92.72;99193.96;102529;278;114363;-56
2023/08/02 03:29:51;;;;;;;6.90;4.50;;;;;;;15.90;92.76;99200.33;102530;278;96741;-56
2023/08/02 03:32:33;;;;;;;9.20;5.10;;;;;;;15.89;92.74;99202.61;102545;278;98269;-52
2023/08/02 03:35:10;;;;;;;5.70;4.60;;;;;;;15.86;92.63;99204.05;102567;278;119548;-53
2023/08/02 03:37:46;;;;;;;6.40;4.80;;;;;;;15.87;92.84;99207.80;102533;278;105219;-52
2023/08/02 03:40:33;;;;;;;5.20;4.20;;;;;;;15.88;92.89;99208.69;102498;278;114981;-56
2023/08/02 03:43:18;;;;;;;6.60;4.90;;;;;;;15.89;92.88;99211.11;102031;278;678824;-56
2023/08/02 03:46:00;;;;;;;6.20;4.80;;;;;;;15.90;92.76;99217.88;102554;279;96802;-54
2023/08/02 03:48:47;;;;;;;5.70;4.90;;;;;;;15.94;92.80;99219.18;102538;279;117988;-55
2023/08/02 03:51:24;;;;;;;6.60;4.70;;;;;;;16.02;92.71;99218.77;102580;266;105727;-54
2023/08/02 03:54:12;;;;;;;6.80;4.60;;;;;;;16.39;92.79;99220.58;102566;278;113868;-55
2023/08/02 03:56:50;;;;;;;5.10;4.60;;;;;;;17.41;92.13;99220.38;102547;278;97011;-56
2023/08/02 03:59:31;;;;;;;5.40;4.70;;;;;;;18.47;90.64;99221.05;102625;278;96686;-58
2023/08/02 04:02:15;;;;;;;6.10;4.50;;;;;;;19.65;89.63;99222.40;102608;278;119436;-57
2023/08/02 04:04:56;;;;;;;6.90;4.30;;;;;;;20.86;87.54;99223.96;102560;279;105313;-53
2023/08/02 04:07:35;;;;;;;5.80;4.20;;;;;;;20.70;85.83;99222.14;102534;278;114679;-53
2023/08/02 04:10:21;;;;;;;5.00;3.80;;;;;;;20.17;85.77;99227.21;102520;278;94683;-56
2023/08/02 04:13:00;;;;;;;5.50;3.80;;;;;;;20.56;85.02;99232.08;102538;278;98492;-56
2023/08/02 04:15:41;;;;;;;7.60;4.00;;;;;;;20.89;83.46;99236.56;102574;278;117534;-56
2023/08/02 04:18:26;;;;;;;5.40;3.90;;;;;;;20.40;83.34;99234.65;102566;278;105669;-56
2023/08/02 04:21:10;;;;;;;5.10;3.70;;;;;;;19.86;83.40;99236.80;102590;278;114087;-53
2023/08/02 04:23:50;;;;;;;4.50;3.70;;;;;;;19.43;83.69;99237.39;102488;278;95826;-55
2023/08/02 04:26:31;;;;;;;4.60;4.00;;;;;;;19.23;84.05;99234.92;102552;278;97795;-55
2023/08/02 04:29:09;;;;;;;5.80;4.00;;;;;;;19.12;84.23;99237.48;102531;278;119709;-55
2023/08/02 04:31:47;;;;;;;7.00;3.80;;;;;;;19.02;84.44;99240.61;102544;278;105736;-54
2023/08/02 04:34:32;;;;;;;4.70;3.80;;;;;;;18.93;84.37;99244.64;102481;278;114358;-55
2023/08/02 04:37:08;;;;;;;4.50;3.80;;;;;;;18.81;84.50;99244.73;102567;278;95934;-52
2023/08/02 04:39:43;;;;;;;5.10;4.00;;;;;;;18.76;84.62;99249.67;102544;278;97387;-54
2023/08/02 04:42:19;;;;;;;4.40;3.70;;;;;;;18.84;84.88;99250.10;102547;279;117167;-54
2023/08/02 04:45:02;;;;;;;5.30;4.70;;;;;;;18.94;84.84;99249.80;102562;278;104992;-52
2023/08/02 04:47:40;;;;;;;7.00;4.40;;;;;;;18.96;84.65;99250.45;102578;278;113957;-52
2023/08/02 04:50:19;;;;;;;5.50;4.10;;;;;;;18.99;84.65;99253.36;102530;279;97295;-54
2023/08/02 04:52:55;;;;;;;5.50;3.90;;;;;;;18.97;84.75;99256.14;102559;278;98004;-54
2023/08/02 04:55:41;;;;;;;4.10;3.40;;;;;;;19.21;84.83;99255.79;102584;278;120257;-54
2023/08/02 04:58:19;;;;;;;5.40;3.50;;;;;;;20.20;84.21;99254.95;102497;278;105743;-54
2023/08/02 05:01:04;;;;;;;3.80;3.30;;;;;;;21.32;82.61;99256.85;102557;278;114722;-54
2023/08/02 05:03:43;;;;;;;3.90;3.40;;;;;;;22.94;80.49;99262.41;102489;278;97387;-54
2023/08/02 05:06:27;;;;;;;4.00;3.60;;;;;;;24.07;78.50;99256.30;102585;278;96593;-55
2023/08/02 05:09:06;;;;;;;3.80;3.40;;;;;;;24.46;76.55;99255.30;102517;279;119698;-55
2023/08/02 05:11:43;;;;;;;5.40;3.30;;;;;;;25.81;75.36;99252.11;102571;278;106717;-56
2023/08/02 05:14:30;;;;;;;5.40;3.50;;;;;;;27.07;72.65;99253.43;102519;278;115358;-56
2023/08/02 05:17:08;;;;;;;3.60;2.90;;;;;;;27.65;70.38;99253.19;102518;278;95735;-55
2023/08/02 05:19:50;;;;;;;3.90;3.40;;;;;;;28.59;68.28;99246.83;102502;278;95414;-55
2023/08/02 05:22:32;;;;;;;3.60;3.20;;;;;;;28.84;65.81;99248.61;102534;278;119899;-57
2023/08/02 05:25:12;;;;;;;3.90;2.90;;;;;;;29.00;64.46;99246.25;102561;278;105313;-54
2023/08/02 05:27:51;;;;;;;4.20;2.90;;;;;;;29.56;62.24;99250.86;102526;278;115174;-55
2023/08/02 05:30:33;;;;;;;3.80;2.90;;;;;;;29.81;61.00;99252.25;102578;278;93266;-55
2023/08/02 05:33:16;;;;;;;5.10;3.20;;;;;;;30.16;59.55;99256.65;102593;278;96723;-55
2023/08/02 05:35:57;;;;;;;4.40;3.00;;;;;;;30.53;58.59;99249.48;102601;279;117869;-57
2023/08/02 05:38:40;;;;;;;3.60;3.20;;;;;;;30.93;57.31;99245.73;102606;278;104295;-57
2023/08/02 05:41:18;;;;;;;3.40;2.90;;;;;;;31.50;55.66;99252.16;102592;279;113773;-57
2023/08/02 05:44:05;;;;;;;4.10;3.00;;;;;;;32.40;54.35;99257.10;102606;278;94528;-57
2023/08/02 05:46:43;;;;;;;4.00;2.90;;;;;;;32.67;52.37;99258.35;102674;278;97579;-57
2023/08/02 05:49:32;;;;;;;4.20;2.90;;;;;;;32.60;51.95;99261.52;102530;279;119606;-57
2023/08/02 05:52:18;;;;;;;5.30;3.00;;;;;;;31.12;51.25;99269.00;102517;278;104860;-55
2023/08/02 05:54:54;;;;;;;4.60;2.90;;;;;;;29.92;52.00;99265.33;102531;266;114077;-56
2023/08/02 05:57:35;;;;;;;3.50;3.10;;;;;;;29.28;52.71;99266.89;102536;278;93522;-57
2023/08/02 06:00:15;;;;;;;3.60;3.30;;;;;;;30.08;52.63;99267.59;102583;279;97200;-55
2023/08/02 06:02:52;;;;;;;3.70;2.90;;;;;;;31.31;51.63;99262.34;102520;278;119828;-55
2023/08/02 06:05:29;;;;;;;3.40;3.10;;;;;;;32.32;50.72;99263.23;102615;278;105098;-56
2023/08/02 06:08:10;;;;;;;4.30;3.10;;;;;;;31.90;49.50;99263.90;102583;278;113584;-57
2023/08/02 06:10:53;;;;;;;5.00;3.00;;;;;;;30.66;49.59;99269.98;102639;278;94110;-56
2023/08/02 06:13:31;;;;;;;3.80;2.80;;;;;;;29.64;50.04;99274.13;102611;279;96955;-57
2023/08/02 06:16:10;;;;;;;4.20;3.20;;;;;;;28.47;51.33;99284.52;102499;278;120671;-53
2023/08/02 06:18:45;;;;;;;5.60;3.50;;;;;;;28.06;52.26;99285.55;102613;278;106039;-52
2023/08/02 06:21:27;;;;;;;7.70;3.30;;;;;;;27.88;52.28;99284.48;102579;278;112850;-53
2023/08/02 06:24:11;;;;;;;4.30;2.70;;;;;;;27.56;52.93;99287.21;102544;278;94985;-53
2023/08/02 06:26:51;;;;;;;3.70;2.90;;;;;;;28.48;52.88;99284.08;102581;279;98358;-55
2023/08/02 06:29:32;;;;;;;3.90;3.00;;;;;;;29.91;52.48;99280.73;102542;278;119767;-55
2023/08/02 06:32:13;;;;;;;4.80;3.20;;;;;;;31.61;50.29;99280.96;102541;278;105713;-55
2023/08/02 06:34:59;;;;;;;3.50;2.70;;;;;;;32.92;47.31;99287.56;102521;278;114712;-53
2023/08/02 06:37:38;;;;;;;5.10;2.90;;;;;;;33.70;46.21;99284.27;102478;278;93088;-54
2023/08/02 06:40:16;;;;;;;3.40;3.00;;;;;;;34.60;44.13;99283.72;102551;278;97657;-55
2023/08/02 06:42:56;;;;;;;5.00;3.10;;;;;;;35.04;43.38;99279.54;102550;302;119686;-52
2023/08/02 06:45:37;;;;;;;3.20;2.90;;;;;;;35.56;42.76;99280.42;102461;279;104545;-54
2023/08/02 06:48:20;;;;;;;3.70;2.90;;;;;;;35.62;41.82;99282.75;102520;279;114643;-56
2023/08/02 06:50:56;;;;;;;3.30;2.80;;;;;;;35.34;40.65;99292.90;102526;279;93255;-56
2023/08/02 06:53:40;;;;;;;3.00;2.60;;;;;;;35.00;40.62;99298.33;102594;278;97378;-54
2023/08/02 06:56:23;;;;;;;3.20;2.40;;;;;;;34.29;40.16;99302.68;102598;278;119128;-56
2023/08/02 06:59:03;;;;;;;2.70;2.30;;;;;;;33.24;41.06;99306.80;102624;279;105806;-56
2023/08/02 07:01:42;;;;;;;4.90;3.10;;;;;;;33.38;41.48;99302.39;102577;278;113415;-55
2023/08/02 07:04:20;;;;;;;4.10;2.60;;;;;;;33.85;41.35;99302.10;102560;278;94724;-55
2023/08/02 07:06:56;;;;;;;5.30;2.80;;;;;;;33.07;41.45;99305.08;102577;278;97723;-53
2023/08/02 07:09:39;;;;;;;3.90;2.80;;;;;;;32.88;42.07;99310.81;102545;278;118970;-54
2023/08/02 07:12:22;;;;;;;4.50;3.00;;;;;;;33.90;41.25;99311.10;102536;278;105484;-55
2023/08/02 07:15:04;;;;;;;3.10;2.40;;;;;;;34.46;40.30;99309.20;102542;278;113564;-56
2023/08/02 07:17:54;;;;;;;2.40;1.90;;;;;;;34.64;39.76;99312.58;102502;278;93408;-60
2023/08/02 07:20:43;;;;;;;5.60;2.50;;;;;;;33.96;39.70;99311.05;102555;279;98474;-55
2023/08/02 07:23:26;;;;;;;3.30;2.20;;;;;;;35.04;39.44;99308.95;102512;278;120472;-66
2023/08/02 07:26:03;;;;;;;3.30;2.00;;;;;;;35.96;38.57;99309.26;102561;279;104831;-58
2023/08/02 07:28:46;;;;;;;3.20;2.10;;;;;;;35.20;37.38;99307.85;102524;278;114119;-57
2023/08/02 07:31:22;;;;;;;2.30;1.90;;;;;;;34.09;38.26;99307.39;102520;279;94855;-60
2023/08/02 07:34:07;;;;;;;3.00;2.30;;;;;;;33.05;38.50;99312.21;102563;278;97704;-60
2023/08/02 07:36:50;;;;;;;4.20;2.20;;;;;;;31.71;40.05;99312.95;102586;278;119306;-57
2023/08/02 07:39:32;;;;;;;4.20;2.10;;;;;;;30.31;41.22;99313.41;102549;278;105802;-56
2023/08/02 07:42:09;;;;;;;5.40;2.10;;;;;;;28.89;42.68;99321.65;102553;279;113882;-57
2023/08/02 07:45:01;;;;;;;3.20;1.70;;;;;;;27.91;43.85;99327.41;102602;278;94946;-59
2023/08/02 07:47:51;;;;;;;6.30;2.60;;;;;;;27.46;45.28;99324.05;102582;278;99687;-60
2023/08/02 07:50:33;;;;;;;5.50;2.60;;;;;;;27.77;46.90;99326.27;102695;278;119277;-55
2023/08/02 07:53:13;;;;;;;3.50;2.20;;;;;;;29.11;45.69;99324.21;102600;279;105906;-54
2023/08/02 07:56:08;;;;;;;3.40;2.20;;;;;;;28.89;45.92;99328.97;102602;278;113231;-55
2023/08/02 07:58:48;;;;;;;2.60;2.10;;;;;;;28.75;45.33;99330.80;102535;278;94108;-54
2023/08/02 08:01:35;;;;;;;3.20;2.50;;;;;;;27.97;45.91;99334.31;102464;280;97635;-55
2023/08/02 08:04:19;;;;;;;2.60;2.00;;;;;;;27.81;46.82;99335.44;102622;278;119379;-56
2023/08/02 08:07:04;;;;;;;3.10;1.60;;;;;;;27.32;47.29;99330.63;102539;278;103669;-55
2023/08/02 08:09:43;;;;;;;2.50;2.10;;;;;;;28.60;49.17;99327.85;102545;279;114638;-54
2023/08/02 08:12:25;;;;;;;2.60;2.00;;;;;;;30.97;47.15;99324.65;102532;278;94889;-58
2023/08/02 08:15:04;;;;;;;3.10;2.50;;;;;;;32.57;44.51;99327.13;102559;278;100551;-54
2023/08/02 08:17:50;;;;;;;3.90;2.80;;;;;;;33.57;42.62;99329.69;102503;279;118745;-53
2023/08/02 08:20:34;;;;;;;2.20;1.80;;;;;;;34.44;41.12;99329.21;102543;278;105095;-53
2023/08/02 08:23:09;;;;;;;2.40;2.20;;;;;;;34.89;39.58;99324.92;102545;279;112739;-53
2023/08/02 08:25:54;;;;;;;3.20;2.00;;;;;;;35.06;39.18;99322.96;102555;278;93265;-57
2023/08/02 08:28:31;;;;;;;3.00;1.90;;;;;;;35.82;37.84;99322.75;102521;278;96691;-56
2023/08/02 08:31:07;;;;;;;2.70;1.90;;;;;;;35.75;36.96;99326.99;102561;278;119640;-56
2023/08/02 08:33:46;;;;;;;3.10;2.10;;;;;;;35.27;37.17;99326.41;102563;278;105168;-56
2023/08/02 08:36:23;;;;;;;2.90;2.30;;;;;;;35.65;37.13;99324.15;102522;278;114438;-57
2023/08/02 08:39:00;;;;;;;2.90;1.90;;;;;;;35.93;36.32;99326.58;102584;278;93606;-56
2023/08/02 08:41:42;;;;;;;2.00;1.70;;;;;;;35.58;35.58;99327.73;102520;278;97457;-56
2023/08/02 08:44:23;;;;;;;3.00;2.10;;;;;;;35.30;36.15;99330.80;102556;282;119299;-55
2023/08/02 08:47:04;;;;;;;3.20;2.10;;;;;;;35.89;36.24;99329.34;102558;279;106387;-53
2023/08/02 08:50:02;;;;;;;2.20;2.00;;;;;;;35.36;35.07;99336.05;102411;279;114311;-53
2023/08/02 08:52:42;;;;;;;2.60;2.30;;;;;;;32.97;35.68;99345.46;102525;278;93493;-55
2023/08/02 08:55:27;;;;;;;2.70;2.20;;;;;;;31.44;37.19;99351.70;102538;279;97356;-57
2023/08/02 08:58:08;;;;;;;4.60;2.00;;;;;;;30.53;38.84;99361.06;102510;278;120695;-57
2023/08/02 09:00:56;;;;;;;4.10;2.40;;;;;;;31.32;40.58;99352.59;102512;279;105313;-55
2023/08/02 09:03:33;;;;;;;3.30;1.90;;;;;;;32.16;40.27;99345.44;102526;278;114698;-55
2023/08/02 09:06:08;;;;;;;2.70;1.80;;;;;;;32.32;38.80;99350.67;102561;278;94589;-56
2023/08/02 09:08:49;;;;;;;5.60;1.70;;;;;;;31.78;39.11;99350.17;102631;278;97531;-56
2023/08/02 09:11:32;;;;;;;3.00;1.80;;;;;;;32.21;39.47;99348.46;102557;279;119591;-54
2023/08/02 09:14:19;;;;;;;3.90;1.70;;;;;;;32.34;38.77;99346.89;102553;278;105627;-55
2023/08/02 09:17:05;;;;;;;3.80;1.80;;;;;;;31.95;38.32;99345.80;102595;278;115348;-55
2023/08/02 09:19:43;;;;;;;3.10;1.80;;;;;;;30.95;38.60;99350.21;102524;278;93703;-55
2023/08/02 09:22:21;;;;;;;2.00;1.40;;;;;;;30.13;39.60;99351.19;102564;279;97963;-53
2023/08/02 09:24:57;;;;;;;2.60;1.40;;;;;;;29.84;40.66;99347.41;102608;278;118316;-54
2023/08/02 09:27:34;;;;;;;2.40;1.70;;;;;;;29.85;40.87;99345.00;102527;279;105162;-54
2023/08/02 09:30:25;;;;;;;3.30;1.40;;;;;;;29.72;40.65;99346.48;102593;278;113949;-57
2023/08/02 09:33:14;;;;;;;2.80;1.40;;;;;;;29.08;40.83;99348.04;102519;278;94174;-58
2023/08/02 09:35:58;;;;;;;2.50;2.00;;;;;;;28.88;41.73;99346.99;102556;279;97521;-54
2023/08/02 09:38:40;;;;;;;3.50;1.60;;;;;;;28.54;42.02;99340.64;102519;278;119319;-54
2023/08/02 09:41:32;;;;;;;2.10;1.50;;;;;;;28.23;42.65;99343.52;102541;278;104275;-54
2023/08/02 09:44:20;;;;;;;2.30;1.30;;;;;;;28.28;43.21;99340.18;102549;278;114483;-53
2023/08/02 09:47:10;;;;;;;2.00;1.50;;;;;;;28.16;42.50;99342.33;102557;278;94800;-58
2023/08/02 09:50:04;;;;;;;1.60;1.10;;;;;;;28.21;43.54;99341.27;102566;278;98042;-56
2023/08/02 09:52:47;;;;;;;1.70;1.00;;;;;;;28.43;43.08;99339.21;102529;278;119255;-54
2023/08/02 09:55:28;;;;;;;3.60;0.80;;;;;;;28.69;43.12;99334.67;102536;278;105775;-56
2023/08/02 09:58:05;;;;;;;1.60;0.80;;;;;;;28.74;42.51;99334.15;102599;278;113748;-56
2023/08/02 10:00:54;;;;;;;1.70;1.10;;;;;;;28.81;43.01;99331.04;102598;278;95109;-54
2023/08/02 10:03:33;;;;;;;3.30;1.10;;;;;;;28.90;42.61;99328.95;102569;278;97367;-55
2023/08/02 10:06:13;;;;;;;3.50;1.10;;;;;;;28.79;42.13;99334.92;102608;278;119901;-55
2023/08/02 10:08:55;;;;;;;2.10;1.20;;;;;;;28.67;42.13;99331.91;102572;279;106148;-56
2023/08/02 10:11:39;;;;;;;2.20;1.10;;;;;;;28.76;42.24;99326.34;102518;278;114048;-54
2023/08/02 10:14:22;;;;;;;2.70;1.20;;;;;;;28.69;42.35;99327.64;102593;278;93506;-52
2023/08/02 10:16:59;;;;;;;2.00;1.30;;;;;;;28.68;42.48;99319.92;102595;278;97541;-58
2023/08/02 10:19:54;;;;;;;2.30;1.30;;;;;;;28.74;42.72;99312.08;102634;278;118411;-57
2023/08/02 10:22:32;;;;;;;2.80;1.20;;;;;;;28.75;42.55;99316.19;102562;278;105751;-57
2023/08/02 10:25:10;;;;;;;4.80;1.50;;;;;;;28.49;42.04;99316.75;102576;278;115088;-58
2023/08/02 10:27:48;;;;;;;2.00;1.20;;;;;;;28.20;41.86;99317.02;102506;279;94648;-57
2023/08/02 10:30:29;;;;;;;1.50;1.20;;;;;;;27.92;42.01;99315.23;102533;278;96830;-55
2023/08/02 10:33:21;;;;;;;1.80;1.20;;;;;;;27.84;42.14;99313.29;102506;278;119806;-56
2023/08/02 10:36:05;;;;;;;2.10;1.20;;;;;;;27.64;42.13;99313.80;102559;278;104115;-57
2023/08/02 10:39:01;;;;;;;2.60;1.20;;;;;;;27.61;42.55;99311.98;102555;278;113990;-58
2023/08/02 10:41:58;;;;;;;2.70;1.30;;;;;;;27.93;43.29;99307.59;102492;279;94933;-55
2023/08/02 10:44:34;;;;;;;1.30;1.10;;;;;;;27.80;42.77;99301.77;102511;278;96198;-55
2023/08/02 10:47:30;;;;;;;1.90;1.30;;;;;;;27.72;42.73;99294.11;102465;279;119055;-54
2023/08/02 10:50:10;;;;;;;4.40;1.00;;;;;;;28.00;42.76;99289.33;102549;279;105321;-53
2023/08/02 10:53:10;;;;;;;2.70;1.40;;;;;;;28.24;42.77;99281.17;102538;278;114882;-53
2023/08/02 10:56:08;;;;;;;2.90;1.30;;;;;;;28.49;42.17;99278.02;102620;279;93440;-55
2023/08/02 10:59:04;;;;;;;5.20;1.30;;;;;;;28.67;42.16;99272.67;102575;279;97472;-55
2023/08/02 11:01:56;;;;;;;2.60;1.20;;;;;;;28.71;41.82;99268.37;102612;279;118225;-59
2023/08/02 11:04:40;;;;;;;3.20;1.80;;;;;;;28.63;41.53;99263.14;102590;278;106359;-58
2023/08/02 11:07:18;;;;;;;2.10;1.20;;;;;;;28.42;41.05;99263.50;102540;278;114144;-54
2023/08/02 11:09:56;;;;;;;2.10;1.10;;;;;;;28.35;40.84;99265.44;102621;279;92638;-52
2023/08/02 11:12:35;;;;;;;3.20;1.30;;;;;;;28.40;40.62;99262.23;102556;279;96581;-54
2023/08/02 11:15:22;;;;;;;3.40;1.40;;;;;;;28.41;40.45;99254.25;102545;278;118954;-53
2023/08/02 11:18:05;;;;;;;2.50;1.30;;;;;;;28.48;40.61;99254.94;102531;278;105971;-53
2023/08/02 11:20:41;;;;;;;2.40;1.30;;;;;;;28.64;41.02;99259.55;102537;278;112922;-57
2023/08/02 11:23:36;;;;;;;4.30;1.70;;;;;;;28.76;40.85;99251.56;102501;278;93608;-57
2023/08/02 11:26:17;;;;;;;1.50;1.30;;;;;;;28.68;40.84;99253.57;102563;279;96740;-58
2023/08/02 11:29:10;;;;;;;3.80;1.30;;;;;;;28.51;40.95;99261.42;102578;278;120105;-59
2023/08/02 11:31:58;;;;;;;3.50;1.50;;;;;;;28.60;41.08;99260.04;102586;278;103974;-56
2023/08/02 11:34:42;;;;;;;3.60;1.50;;;;;;;28.71;40.91;99253.26;102542;278;114494;-64
2023/08/02 11:37:24;;;;;;;1.90;1.40;;;;;;;28.50;40.85;99259.55;102602;278;94341;-64
2023/08/02 11:40:05;;;;;;;2.10;1.30;;;;;;;28.23;40.92;99259.30;102588;279;99622;-63
2023/08/02 11:42:53;;;;;;;3.60;1.40;;;;;;;27.93;40.88;99260.00;102190;278;568570;-62
2023/08/02 11:45:37;;;;;;;3.20;1.20;;;;;;;27.86;41.60;99253.98;102606;278;105576;-53
2023/08/02 11:48:34;;;;;;;2.50;1.20;;;;;;;27.95;41.63;99249.19;102531;278;115987;-53
2023/08/02 11:51:16;;;;;;;3.00;1.60;;;;;;;28.09;41.84;99249.42;102628;278;93393;-55
2023/08/02 11:53:59;;;;;;;2.90;1.50;;;;;;;27.94;41.51;99258.92;102551;278;97843;-55
2023/08/02 11:56:36;;;;;;;2.50;1.40;;;;;;;27.80;41.43;99255.20;102610;278;118564;-53
2023/08/02 11:59:26;;;;;;;2.20;1.60;;;;;;;28.02;41.92;99240.86;102598;278;103568;-53
2023/08/02 12:02:26;;;;;;;2.70;1.50;;;;;;;28.13;41.92;99244.77;102591;278;114656;-57
2023/08/02 12:05:08;;;;;;;2.50;1.10;;;;;;;27.92;41.72;99249.00;102621;278;94927;-54
2023/08/02 12:07:55;;;;;;;2.40;1.50;;;;;;;27.69;42.07;99249.73;102539;278;97315;-55
2023/08/02 12:10:36;;;;;;;2.30;1.30;;;;;;;27.81;42.50;99244.63;102565;278;119735;-57
2023/08/02 12:13:18;;;;;;;3.20;1.30;;;;;;;27.70;41.85;99243.58;102589;278;105534;-58
2023/08/02 12:16:10;;;;;;;2.20;1.30;;;;;;;27.42;41.52;99252.15;102549;278;115264;-55
2023/08/02 12:18:59;;;;;;;4.70;1.60;;;;;;;27.18;42.15;99250.71;102513;278;93737;-55
2023/08/02 12:21:43;;;;;;;2.60;1.40;;;;;;;27.00;42.54;99247.41;102630;278;96523;-57
2023/08/02 12:24:27;;;;;;;2.60;1.20;;;;;;;26.77;42.50;99251.64;102585;278;119612;-57
2023/08/02 12:27:14;;;;;;;;;;;;;;;26.53;42.49;99247.05;102602;278;105909;-55
2023/08/02 12:30:11;;;;;;;4.00;1.70;;;;;;;26.70;42.99;99245.00;102537;278;114698;-54
2023/08/02 12:32:50;;;;;;;2.10;1.60;;;;;;;26.93;42.81;99245.23;102575;271;94820;-55
2023/08/02 12:35:28;;;;;;;1.90;1.20;;;;;;;26.88;42.59;99243.55;102705;278;98475;-55
2023/08/02 12:38:07;;;;;;;2.20;1.20;;;;;;;26.79;42.34;99243.12;102641;278;119125;-55
2023/08/02 12:40:43;;;;;;;2.40;1.50;;;;;;;26.95;42.63;99238.81;102644;278;105074;-53